sensor_id;sensor_type;location;lat;lon;timestamp;P1;durP1;ratioP1;P2;durP2;ratioP2
15665;SDS011;20725;51.196;3.510;2022-07-17T00:01:45;3.80;;;3.43;;
15665;SDS011;20725;51.196;3.510;2022-07-17T00:04:24;5.27;;;3.80;;
15665;SDS011;20725;51.196;3.510;2022-07-17T00:06:55;5.77;;;3.80;;
15665;SDS011;20725;51.196;3.510;2022-07-17T00:09:24;7.03;;;4.00;;
15665;SDS011;20725;51.196;3.510;2022-07-17T00:11:56;4.30;;;3.40;;
15665;SDS011;20725;51.196;3.510;2022-07-17T00:14:23;4.40;;;3.23;;
15665;SDS011;20725;51.196;3.510;2022-07-17T00:16:52;7.43;;;3.50;;
15665;SDS011;20725;51.196;3.510;2022-07-17T00:19:21;3.50;;;3.20;;
15665;SDS011;20725;51.196;3.510;2022-07-17T00:21:50;6.53;;;3.30;;
15665;SDS011;20725;51.196;3.510;2022-07-17T00:24:35;5.07;;;3.00;;
15665;SDS011;20725;51.196;3.510;2022-07-17T00:27:08;5.87;;;3.10;;
15665;SDS011;20725;51.196;3.510;2022-07-17T00:29:43;3.90;;;2.97;;
15665;SDS011;20725;51.196;3.510;2022-07-17T00:32:13;5.43;;;2.93;;
15665;SDS011;20725;51.196;3.510;2022-07-17T00:34:45;4.20;;;3.07;;
15665;SDS011;20725;51.196;3.510;2022-07-17T00:37:16;4.27;;;3.40;;
15665;SDS011;20725;51.196;3.510;2022-07-17T00:39:45;4.90;;;2.97;;
15665;SDS011;20725;51.196;3.510;2022-07-17T00:42:15;4.70;;;2.90;;
15665;SDS011;20725;51.196;3.510;2022-07-17T00:44:44;4.80;;;3.10;;
15665;SDS011;20725;51.196;3.510;2022-07-17T00:47:16;5.13;;;3.03;;
15665;SDS011;20725;51.196;3.510;2022-07-17T00:49:46;6.03;;;3.10;;
15665;SDS011;20725;51.196;3.510;2022-07-17T00:52:18;4.23;;;3.30;;
15665;SDS011;20725;51.196;3.510;2022-07-17T00:54:47;3.70;;;3.30;;
15665;SDS011;20725;51.196;3.510;2022-07-17T00:57:17;4.87;;;3.30;;
15665;SDS011;20725;51.196;3.510;2022-07-17T00:59:58;3.57;;;3.10;;
15665;SDS011;20725;51.196;3.510;2022-07-17T01:02:33;3.83;;;3.00;;
15665;SDS011;20725;51.196;3.510;2022-07-17T01:05:00;3.17;;;2.90;;
15665;SDS011;20725;51.196;3.510;2022-07-17T01:07:27;5.53;;;3.30;;
15665;SDS011;20725;51.196;3.510;2022-07-17T01:09:54;4.50;;;3.03;;
15665;SDS011;20725;51.196;3.510;2022-07-17T01:12:23;3.53;;;2.90;;
15665;SDS011;20725;51.196;3.510;2022-07-17T01:15:01;4.57;;;3.13;;
15665;SDS011;20725;51.196;3.510;2022-07-17T01:17:41;5.53;;;2.70;;
15665;SDS011;20725;51.196;3.510;2022-07-17T01:20:15;4.90;;;3.00;;
15665;SDS011;20725;51.196;3.510;2022-07-17T01:25:38;4.10;;;3.40;;
15665;SDS011;20725;51.196;3.510;2022-07-17T01:28:05;3.83;;;3.53;;
15665;SDS011;20725;51.196;3.510;2022-07-17T01:30:35;4.40;;;4.00;;
15665;SDS011;20725;51.196;3.510;2022-07-17T01:33:12;4.23;;;3.67;;
15665;SDS011;20725;51.196;3.510;2022-07-17T01:35:42;6.77;;;4.03;;
15665;SDS011;20725;51.196;3.510;2022-07-17T01:38:21;6.23;;;3.97;;
15665;SDS011;20725;51.196;3.510;2022-07-17T01:41:07;4.43;;;3.83;;
15665;SDS011;20725;51.196;3.510;2022-07-17T01:43:47;3.90;;;3.60;;
15665;SDS011;20725;51.196;3.510;2022-07-17T01:46:17;5.37;;;3.53;;
15665;SDS011;20725;51.196;3.510;2022-07-17T01:48:50;7.60;;;3.63;;
15665;SDS011;20725;51.196;3.510;2022-07-17T01:51:20;4.37;;;3.87;;
15665;SDS011;20725;51.196;3.510;2022-07-17T01:53:49;3.90;;;3.60;;
15665;SDS011;20725;51.196;3.510;2022-07-17T01:56:16;5.23;;;3.40;;
15665;SDS011;20725;51.196;3.510;2022-07-17T01:58:45;4.17;;;3.50;;
15665;SDS011;20725;51.196;3.510;2022-07-17T02:01:16;7.33;;;3.53;;
15665;SDS011;20725;51.196;3.510;2022-07-17T02:03:48;7.73;;;4.07;;
15665;SDS011;20725;51.196;3.510;2022-07-17T02:06:17;4.03;;;3.63;;
15665;SDS011;20725;51.196;3.510;2022-07-17T02:08:46;3.40;;;3.10;;
15665;SDS011;20725;51.196;3.510;2022-07-17T02:11:16;8.77;;;3.77;;
15665;SDS011;20725;51.196;3.510;2022-07-17T02:13:48;4.90;;;4.10;;
15665;SDS011;20725;51.196;3.510;2022-07-17T02:16:22;6.37;;;3.40;;
15665;SDS011;20725;51.196;3.510;2022-07-17T02:18:51;5.90;;;3.63;;
15665;SDS011;20725;51.196;3.510;2022-07-17T02:21:24;5.70;;;3.97;;
15665;SDS011;20725;51.196;3.510;2022-07-17T02:23:55;3.80;;;3.20;;
15665;SDS011;20725;51.196;3.510;2022-07-17T02:26:27;3.30;;;3.00;;
15665;SDS011;20725;51.196;3.510;2022-07-17T02:28:57;3.57;;;3.23;;
15665;SDS011;20725;51.196;3.510;2022-07-17T02:31:26;5.20;;;3.50;;
15665;SDS011;20725;51.196;3.510;2022-07-17T02:33:56;8.50;;;3.37;;
15665;SDS011;20725;51.196;3.510;2022-07-17T02:36:24;4.30;;;3.70;;
15665;SDS011;20725;51.196;3.510;2022-07-17T02:38:53;3.50;;;3.20;;
15665;SDS011;20725;51.196;3.510;2022-07-17T02:41:20;7.87;;;4.37;;
15665;SDS011;20725;51.196;3.510;2022-07-17T02:43:53;6.43;;;4.13;;
15665;SDS011;20725;51.196;3.510;2022-07-17T02:46:22;5.93;;;4.03;;
15665;SDS011;20725;51.196;3.510;2022-07-17T02:48:51;4.93;;;4.37;;
15665;SDS011;20725;51.196;3.510;2022-07-17T02:51:28;6.67;;;5.00;;
15665;SDS011;20725;51.196;3.510;2022-07-17T02:53:57;5.37;;;3.80;;
15665;SDS011;20725;51.196;3.510;2022-07-17T02:56:38;4.60;;;3.83;;
15665;SDS011;20725;51.196;3.510;2022-07-17T02:59:07;7.63;;;4.00;;
15665;SDS011;20725;51.196;3.510;2022-07-17T03:01:34;6.43;;;4.00;;
15665;SDS011;20725;51.196;3.510;2022-07-17T03:04:01;5.13;;;3.90;;
15665;SDS011;20725;51.196;3.510;2022-07-17T03:06:28;4.50;;;4.10;;
15665;SDS011;20725;51.196;3.510;2022-07-17T03:09:03;6.67;;;4.40;;
15665;SDS011;20725;51.196;3.510;2022-07-17T03:11:32;8.27;;;4.53;;
15665;SDS011;20725;51.196;3.510;2022-07-17T03:14:04;5.07;;;4.33;;
15665;SDS011;20725;51.196;3.510;2022-07-17T03:16:36;9.23;;;4.90;;
15665;SDS011;20725;51.196;3.510;2022-07-17T03:19:20;4.17;;;3.77;;
15665;SDS011;20725;51.196;3.510;2022-07-17T03:22:14;3.77;;;3.47;;
15665;SDS011;20725;51.196;3.510;2022-07-17T03:24:42;6.43;;;4.20;;
15665;SDS011;20725;51.196;3.510;2022-07-17T03:27:09;5.00;;;4.20;;
15665;SDS011;20725;51.196;3.510;2022-07-17T03:29:45;4.80;;;4.33;;
15665;SDS011;20725;51.196;3.510;2022-07-17T03:32:16;5.80;;;4.00;;
15665;SDS011;20725;51.196;3.510;2022-07-17T03:34:49;4.57;;;4.17;;
15665;SDS011;20725;51.196;3.510;2022-07-17T03:37:31;5.00;;;3.87;;
15665;SDS011;20725;51.196;3.510;2022-07-17T03:40:12;6.40;;;4.20;;
15665;SDS011;20725;51.196;3.510;2022-07-17T03:42:41;9.03;;;4.07;;
15665;SDS011;20725;51.196;3.510;2022-07-17T03:45:21;4.17;;;3.77;;
15665;SDS011;20725;51.196;3.510;2022-07-17T03:47:57;4.67;;;4.07;;
15665;SDS011;20725;51.196;3.510;2022-07-17T03:50:42;4.60;;;4.20;;
15665;SDS011;20725;51.196;3.510;2022-07-17T03:53:46;10.67;;;5.23;;
15665;SDS011;20725;51.196;3.510;2022-07-17T03:56:15;6.07;;;5.33;;
15665;SDS011;20725;51.196;3.510;2022-07-17T03:58:48;5.30;;;4.80;;
15665;SDS011;20725;51.196;3.510;2022-07-17T04:01:33;12.57;;;5.93;;
15665;SDS011;20725;51.196;3.510;2022-07-17T04:04:18;10.23;;;5.93;;
15665;SDS011;20725;51.196;3.510;2022-07-17T04:07:08;10.70;;;4.90;;
15665;SDS011;20725;51.196;3.510;2022-07-17T04:09:56;5.30;;;4.80;;
15665;SDS011;20725;51.196;3.510;2022-07-17T04:12:27;5.30;;;4.80;;
15665;SDS011;20725;51.196;3.510;2022-07-17T04:17:07;7.60;;;4.87;;
15665;SDS011;20725;51.196;3.510;2022-07-17T04:18:37;9.50;;;5.00;;
15665;SDS011;20725;51.196;3.510;2022-07-17T04:21:11;9.20;;;5.30;;
15665;SDS011;20725;51.196;3.510;2022-07-17T04:23:44;7.63;;;5.13;;
15665;SDS011;20725;51.196;3.510;2022-07-17T04:26:32;11.53;;;5.20;;
15665;SDS011;20725;51.196;3.510;2022-07-17T04:29:03;7.03;;;5.07;;
15665;SDS011;20725;51.196;3.510;2022-07-17T04:31:44;11.00;;;4.77;;
15665;SDS011;20725;51.196;3.510;2022-07-17T04:34:21;9.83;;;5.13;;
15665;SDS011;20725;51.196;3.510;2022-07-17T04:36:51;8.57;;;4.80;;
15665;SDS011;20725;51.196;3.510;2022-07-17T04:39:18;6.47;;;4.60;;
15665;SDS011;20725;51.196;3.510;2022-07-17T04:41:54;6.03;;;4.77;;
15665;SDS011;20725;51.196;3.510;2022-07-17T04:44:30;7.33;;;4.70;;
15665;SDS011;20725;51.196;3.510;2022-07-17T04:47:35;6.27;;;4.90;;
15665;SDS011;20725;51.196;3.510;2022-07-17T04:50:06;6.00;;;4.40;;
15665;SDS011;20725;51.196;3.510;2022-07-17T04:52:36;5.13;;;4.37;;
15665;SDS011;20725;51.196;3.510;2022-07-17T04:55:47;9.53;;;4.50;;
15665;SDS011;20725;51.196;3.510;2022-07-17T04:58:17;9.37;;;4.70;;
15665;SDS011;20725;51.196;3.510;2022-07-17T05:00:47;5.47;;;4.20;;
15665;SDS011;20725;51.196;3.510;2022-07-17T05:03:30;9.67;;;4.60;;
15665;SDS011;20725;51.196;3.510;2022-07-17T05:09:40;8.10;;;5.13;;
15665;SDS011;20725;51.196;3.510;2022-07-17T05:12:09;6.67;;;5.03;;
15665;SDS011;20725;51.196;3.510;2022-07-17T05:15:13;9.90;;;4.57;;
15665;SDS011;20725;51.196;3.510;2022-07-17T05:17:43;5.57;;;4.53;;
15665;SDS011;20725;51.196;3.510;2022-07-17T05:20:10;6.97;;;5.00;;
15665;SDS011;20725;51.196;3.510;2022-07-17T05:22:53;6.70;;;4.90;;
15665;SDS011;20725;51.196;3.510;2022-07-17T05:25:27;8.60;;;5.03;;
15665;SDS011;20725;51.196;3.510;2022-07-17T05:28:07;7.30;;;4.40;;
15665;SDS011;20725;51.196;3.510;2022-07-17T05:30:40;5.13;;;4.40;;
15665;SDS011;20725;51.196;3.510;2022-07-17T05:33:07;6.60;;;4.40;;
15665;SDS011;20725;51.196;3.510;2022-07-17T05:35:39;8.57;;;4.57;;
15665;SDS011;20725;51.196;3.510;2022-07-17T05:38:17;6.67;;;5.03;;
15665;SDS011;20725;51.196;3.510;2022-07-17T05:41:21;9.93;;;4.97;;
15665;SDS011;20725;51.196;3.510;2022-07-17T05:44:14;7.33;;;5.00;;
15665;SDS011;20725;51.196;3.510;2022-07-17T05:47:03;8.23;;;4.53;;
15665;SDS011;20725;51.196;3.510;2022-07-17T05:52:29;8.43;;;3.90;;
15665;SDS011;20725;51.196;3.510;2022-07-17T05:55:17;7.50;;;4.30;;
15665;SDS011;20725;51.196;3.510;2022-07-17T05:57:47;7.00;;;4.17;;
15665;SDS011;20725;51.196;3.510;2022-07-17T06:00:41;10.60;;;4.63;;
15665;SDS011;20725;51.196;3.510;2022-07-17T06:03:22;6.60;;;3.70;;
15665;SDS011;20725;51.196;3.510;2022-07-17T06:06:09;9.33;;;4.50;;
15665;SDS011;20725;51.196;3.510;2022-07-17T06:09:13;8.90;;;4.13;;
15665;SDS011;20725;51.196;3.510;2022-07-17T06:11:46;10.40;;;4.60;;
15665;SDS011;20725;51.196;3.510;2022-07-17T06:17:07;5.73;;;4.10;;
15665;SDS011;20725;51.196;3.510;2022-07-17T06:19:39;8.03;;;4.00;;
15665;SDS011;20725;51.196;3.510;2022-07-17T06:22:07;5.57;;;3.43;;
15665;SDS011;20725;51.196;3.510;2022-07-17T06:24:36;6.03;;;3.30;;
15665;SDS011;20725;51.196;3.510;2022-07-17T06:30:11;6.87;;;3.20;;
15665;SDS011;20725;51.196;3.510;2022-07-17T06:32:42;7.33;;;2.93;;
15665;SDS011;20725;51.196;3.510;2022-07-17T06:35:23;5.50;;;2.77;;
15665;SDS011;20725;51.196;3.510;2022-07-17T06:38:01;6.30;;;2.93;;
15665;SDS011;20725;51.196;3.510;2022-07-17T06:40:33;8.63;;;2.70;;
15665;SDS011;20725;51.196;3.510;2022-07-17T06:43:02;4.00;;;2.70;;
15665;SDS011;20725;51.196;3.510;2022-07-17T06:45:44;4.23;;;2.50;;
15665;SDS011;20725;51.196;3.510;2022-07-17T06:51:08;5.43;;;2.73;;
15665;SDS011;20725;51.196;3.510;2022-07-17T06:54:10;6.50;;;2.73;;
15665;SDS011;20725;51.196;3.510;2022-07-17T06:56:36;6.37;;;2.60;;
15665;SDS011;20725;51.196;3.510;2022-07-17T06:59:25;7.77;;;2.60;;
15665;SDS011;20725;51.196;3.510;2022-07-17T07:02:06;6.73;;;2.70;;
15665;SDS011;20725;51.196;3.510;2022-07-17T07:04:37;6.13;;;2.00;;
15665;SDS011;20725;51.196;3.510;2022-07-17T07:07:08;4.90;;;2.40;;
15665;SDS011;20725;51.196;3.510;2022-07-17T07:09:46;7.93;;;2.10;;
15665;SDS011;20725;51.196;3.510;2022-07-17T07:12:46;6.10;;;2.30;;
15665;SDS011;20725;51.196;3.510;2022-07-17T07:15:25;5.97;;;2.30;;
15665;SDS011;20725;51.196;3.510;2022-07-17T07:17:53;7.13;;;2.43;;
15665;SDS011;20725;51.196;3.510;2022-07-17T07:20:21;5.60;;;2.23;;
15665;SDS011;20725;51.196;3.510;2022-07-17T07:22:48;4.80;;;1.93;;
15665;SDS011;20725;51.196;3.510;2022-07-17T07:25:18;4.07;;;1.90;;
15665;SDS011;20725;51.196;3.510;2022-07-17T07:27:46;5.90;;;1.97;;
15665;SDS011;20725;51.196;3.510;2022-07-17T07:30:13;6.53;;;2.00;;
15665;SDS011;20725;51.196;3.510;2022-07-17T07:32:42;3.13;;;1.80;;
15665;SDS011;20725;51.196;3.510;2022-07-17T07:35:09;4.10;;;1.97;;
15665;SDS011;20725;51.196;3.510;2022-07-17T07:37:43;4.23;;;1.70;;
15665;SDS011;20725;51.196;3.510;2022-07-17T07:40:24;6.87;;;1.97;;
15665;SDS011;20725;51.196;3.510;2022-07-17T07:43:02;4.23;;;1.83;;
15665;SDS011;20725;51.196;3.510;2022-07-17T07:45:32;5.63;;;1.85;;
15665;SDS011;20725;51.196;3.510;2022-07-17T07:48:04;6.28;;;2.08;;
15665;SDS011;20725;51.196;3.510;2022-07-17T07:50:35;4.75;;;1.77;;
15665;SDS011;20725;51.196;3.510;2022-07-17T07:53:02;5.65;;;2.20;;
15665;SDS011;20725;51.196;3.510;2022-07-17T07:55:31;4.57;;;1.70;;
15665;SDS011;20725;51.196;3.510;2022-07-17T07:58:02;4.60;;;1.90;;
15665;SDS011;20725;51.196;3.510;2022-07-17T08:00:40;5.15;;;1.95;;
15665;SDS011;20725;51.196;3.510;2022-07-17T08:03:11;5.18;;;1.90;;
15665;SDS011;20725;51.196;3.510;2022-07-17T08:05:39;2.63;;;1.58;;
15665;SDS011;20725;51.196;3.510;2022-07-17T08:08:07;8.75;;;1.70;;
15665;SDS011;20725;51.196;3.510;2022-07-17T08:10:35;6.25;;;1.92;;
15665;SDS011;20725;51.196;3.510;2022-07-17T08:13:05;3.08;;;1.50;;
15665;SDS011;20725;51.196;3.510;2022-07-17T08:15:32;5.97;;;1.70;;
15665;SDS011;20725;51.196;3.510;2022-07-17T08:21:15;4.57;;;1.63;;
15665;SDS011;20725;51.196;3.510;2022-07-17T08:23:53;5.72;;;1.83;;
15665;SDS011;20725;51.196;3.510;2022-07-17T08:26:36;3.50;;;1.70;;
15665;SDS011;20725;51.196;3.510;2022-07-17T08:29:05;8.60;;;1.98;;
15665;SDS011;20725;51.196;3.510;2022-07-17T08:31:38;4.40;;;1.98;;
15665;SDS011;20725;51.196;3.510;2022-07-17T08:34:41;3.08;;;1.42;;
15665;SDS011;20725;51.196;3.510;2022-07-17T08:37:15;3.78;;;1.60;;
15665;SDS011;20725;51.196;3.510;2022-07-17T08:39:45;5.88;;;1.52;;
15665;SDS011;20725;51.196;3.510;2022-07-17T08:42:25;6.03;;;1.55;;
15665;SDS011;20725;51.196;3.510;2022-07-17T08:45:08;6.43;;;2.00;;
15665;SDS011;20725;51.196;3.510;2022-07-17T08:50:50;4.75;;;1.85;;
15665;SDS011;20725;51.196;3.510;2022-07-17T08:53:24;4.80;;;1.70;;
15665;SDS011;20725;51.196;3.510;2022-07-17T08:55:53;2.85;;;1.63;;
15665;SDS011;20725;51.196;3.510;2022-07-17T08:58:27;5.78;;;2.20;;
15665;SDS011;20725;51.196;3.510;2022-07-17T09:01:17;2.67;;;1.60;;
15665;SDS011;20725;51.196;3.510;2022-07-17T09:03:56;4.43;;;1.70;;
15665;SDS011;20725;51.196;3.510;2022-07-17T09:06:33;4.85;;;1.45;;
15665;SDS011;20725;51.196;3.510;2022-07-17T09:09:08;3.58;;;1.60;;
15665;SDS011;20725;51.196;3.510;2022-07-17T09:11:44;6.03;;;2.03;;
15665;SDS011;20725;51.196;3.510;2022-07-17T09:14:15;3.60;;;1.73;;
15665;SDS011;20725;51.196;3.510;2022-07-17T09:16:48;2.83;;;1.67;;
15665;SDS011;20725;51.196;3.510;2022-07-17T09:19:26;4.07;;;1.50;;
15665;SDS011;20725;51.196;3.510;2022-07-17T09:22:03;5.03;;;1.73;;
15665;SDS011;20725;51.196;3.510;2022-07-17T09:24:44;4.32;;;1.90;;
15665;SDS011;20725;51.196;3.510;2022-07-17T09:27:15;4.05;;;1.65;;
15665;SDS011;20725;51.196;3.510;2022-07-17T09:30:02;3.75;;;2.33;;
15665;SDS011;20725;51.196;3.510;2022-07-17T09:32:57;7.45;;;2.00;;
15665;SDS011;20725;51.196;3.510;2022-07-17T09:35:31;4.80;;;2.17;;
15665;SDS011;20725;51.196;3.510;2022-07-17T09:38:25;3.30;;;2.15;;
15665;SDS011;20725;51.196;3.510;2022-07-17T09:41:09;5.43;;;3.10;;
15665;SDS011;20725;51.196;3.510;2022-07-17T09:43:47;6.25;;;2.83;;
15665;SDS011;20725;51.196;3.510;2022-07-17T09:46:38;6.40;;;3.15;;
15665;SDS011;20725;51.196;3.510;2022-07-17T09:49:08;7.68;;;3.58;;
15665;SDS011;20725;51.196;3.510;2022-07-17T09:51:37;6.03;;;3.90;;
15665;SDS011;20725;51.196;3.510;2022-07-17T09:54:16;5.60;;;3.92;;
15665;SDS011;20725;51.196;3.510;2022-07-17T10:00:21;6.05;;;3.85;;
15665;SDS011;20725;51.196;3.510;2022-07-17T10:03:03;6.53;;;3.58;;
15665;SDS011;20725;51.196;3.510;2022-07-17T10:05:48;7.82;;;4.32;;
15665;SDS011;20725;51.196;3.510;2022-07-17T10:08:29;6.30;;;3.83;;
15665;SDS011;20725;51.196;3.510;2022-07-17T10:11:06;6.90;;;3.92;;
15665;SDS011;20725;51.196;3.510;2022-07-17T10:13:46;8.00;;;4.22;;
15665;SDS011;20725;51.196;3.510;2022-07-17T10:16:29;8.45;;;4.00;;
15665;SDS011;20725;51.196;3.510;2022-07-17T10:19:24;6.53;;;3.40;;
15665;SDS011;20725;51.196;3.510;2022-07-17T10:21:57;4.72;;;3.80;;
15665;SDS011;20725;51.196;3.510;2022-07-17T10:24:32;6.75;;;3.97;;
15665;SDS011;20725;51.196;3.510;2022-07-17T10:27:17;7.55;;;4.25;;
15665;SDS011;20725;51.196;3.510;2022-07-17T10:29:57;7.95;;;3.03;;
15665;SDS011;20725;51.196;3.510;2022-07-17T10:32:41;5.65;;;2.72;;
15665;SDS011;20725;51.196;3.510;2022-07-17T10:35:18;4.05;;;3.58;;
15665;SDS011;20725;51.196;3.510;2022-07-17T10:37:49;4.97;;;3.63;;
15665;SDS011;20725;51.196;3.510;2022-07-17T10:40:20;7.72;;;3.38;;
15665;SDS011;20725;51.196;3.510;2022-07-17T10:42:57;6.50;;;3.25;;
15665;SDS011;20725;51.196;3.510;2022-07-17T10:45:39;4.93;;;2.80;;
15665;SDS011;20725;51.196;3.510;2022-07-17T10:48:13;6.03;;;2.83;;
15665;SDS011;20725;51.196;3.510;2022-07-17T10:50:57;6.15;;;2.72;;
15665;SDS011;20725;51.196;3.510;2022-07-17T10:53:46;7.25;;;2.60;;
15665;SDS011;20725;51.196;3.510;2022-07-17T10:56:29;4.93;;;3.00;;
15665;SDS011;20725;51.196;3.510;2022-07-17T10:59:28;4.50;;;3.53;;
15665;SDS011;20725;51.196;3.510;2022-07-17T11:02:07;3.53;;;2.72;;
15665;SDS011;20725;51.196;3.510;2022-07-17T11:04:49;5.07;;;2.70;;
15665;SDS011;20725;51.196;3.510;2022-07-17T11:07:29;4.95;;;2.55;;
15665;SDS011;20725;51.196;3.510;2022-07-17T11:10:13;2.92;;;1.83;;
15665;SDS011;20725;51.196;3.510;2022-07-17T11:12:42;4.22;;;2.10;;
15665;SDS011;20725;51.196;3.510;2022-07-17T11:21:16;2.95;;;1.33;;
15665;SDS011;20725;51.196;3.510;2022-07-17T11:23:55;2.55;;;1.63;;
15665;SDS011;20725;51.196;3.510;2022-07-17T11:26:23;4.45;;;1.75;;
15665;SDS011;20725;51.196;3.510;2022-07-17T11:28:55;2.13;;;1.70;;
15665;SDS011;20725;51.196;3.510;2022-07-17T11:32:00;4.20;;;1.88;;
15665;SDS011;20725;51.196;3.510;2022-07-17T11:34:29;4.25;;;2.15;;
15665;SDS011;20725;51.196;3.510;2022-07-17T11:37:02;3.80;;;2.00;;
15665;SDS011;20725;51.196;3.510;2022-07-17T11:40:01;2.28;;;2.15;;
15665;SDS011;20725;51.196;3.510;2022-07-17T11:42:33;3.00;;;2.42;;
15665;SDS011;20725;51.196;3.510;2022-07-17T11:45:31;4.03;;;2.45;;
15665;SDS011;20725;51.196;3.510;2022-07-17T11:48:02;2.83;;;2.58;;
15665;SDS011;20725;51.196;3.510;2022-07-17T11:50:35;2.50;;;2.30;;
15665;SDS011;20725;51.196;3.510;2022-07-17T11:53:16;2.45;;;2.25;;
15665;SDS011;20725;51.196;3.510;2022-07-17T11:56:04;5.30;;;2.45;;
15665;SDS011;20725;51.196;3.510;2022-07-17T12:02:05;2.47;;;2.28;;
15665;SDS011;20725;51.196;3.510;2022-07-17T12:07:38;2.47;;;2.28;;
15665;SDS011;20725;51.196;3.510;2022-07-17T12:11:09;4.97;;;2.17;;
15665;SDS011;20725;51.196;3.510;2022-07-17T12:14:02;2.38;;;2.17;;
15665;SDS011;20725;51.196;3.510;2022-07-17T12:17:02;3.95;;;2.65;;
15665;SDS011;20725;51.196;3.510;2022-07-17T12:22:41;3.35;;;2.30;;
15665;SDS011;20725;51.196;3.510;2022-07-17T12:25:23;2.53;;;2.33;;
15665;SDS011;20725;51.196;3.510;2022-07-17T12:27:55;2.97;;;2.40;;
15665;SDS011;20725;51.196;3.510;2022-07-17T12:30:22;3.05;;;2.40;;
15665;SDS011;20725;51.196;3.510;2022-07-17T12:32:49;4.60;;;2.70;;
15665;SDS011;20725;51.196;3.510;2022-07-17T12:35:24;3.38;;;2.40;;
15665;SDS011;20725;51.196;3.510;2022-07-17T12:38:02;5.53;;;2.67;;
15665;SDS011;20725;51.196;3.510;2022-07-17T12:40:48;3.75;;;2.28;;
15665;SDS011;20725;51.196;3.510;2022-07-17T12:43:51;4.43;;;2.78;;
15665;SDS011;20725;51.196;3.510;2022-07-17T12:46:25;4.40;;;2.80;;
15665;SDS011;20725;51.196;3.510;2022-07-17T12:49:06;2.83;;;2.50;;
15665;SDS011;20725;51.196;3.510;2022-07-17T12:51:55;3.38;;;2.92;;
15665;SDS011;20725;51.196;3.510;2022-07-17T12:54:27;2.65;;;2.38;;
15665;SDS011;20725;51.196;3.510;2022-07-17T12:57:53;3.05;;;2.75;;
15665;SDS011;20725;51.196;3.510;2022-07-17T13:00:47;3.55;;;2.90;;
15665;SDS011;20725;51.196;3.510;2022-07-17T13:04:00;2.72;;;2.53;;
15665;SDS011;20725;51.196;3.510;2022-07-17T13:06:32;2.88;;;2.67;;
15665;SDS011;20725;51.196;3.510;2022-07-17T13:12:39;7.28;;;2.40;;
15665;SDS011;20725;51.196;3.510;2022-07-17T13:15:27;2.72;;;2.33;;
15665;SDS011;20725;51.196;3.510;2022-07-17T13:18:14;3.53;;;2.63;;
15665;SDS011;20725;51.196;3.510;2022-07-17T13:20:57;5.55;;;2.75;;
15665;SDS011;20725;51.196;3.510;2022-07-17T13:23:24;4.18;;;2.30;;
15665;SDS011;20725;51.196;3.510;2022-07-17T13:25:53;4.60;;;2.45;;
15665;SDS011;20725;51.196;3.510;2022-07-17T13:31:09;4.50;;;2.65;;
15665;SDS011;20725;51.196;3.510;2022-07-17T13:33:38;3.38;;;1.98;;
15665;SDS011;20725;51.196;3.510;2022-07-17T13:36:06;5.60;;;2.30;;
15665;SDS011;20725;51.196;3.510;2022-07-17T13:38:33;2.72;;;2.13;;
15665;SDS011;20725;51.196;3.510;2022-07-17T13:41:00;3.08;;;2.00;;
15665;SDS011;20725;51.196;3.510;2022-07-17T13:43:33;4.07;;;2.17;;
15665;SDS011;20725;51.196;3.510;2022-07-17T13:46:10;3.22;;;2.38;;
15665;SDS011;20725;51.196;3.510;2022-07-17T13:48:41;3.58;;;2.40;;
15665;SDS011;20725;51.196;3.510;2022-07-17T13:51:30;2.67;;;2.47;;
15665;SDS011;20725;51.196;3.510;2022-07-17T13:54:10;3.78;;;2.38;;
15665;SDS011;20725;51.196;3.510;2022-07-17T13:56:51;1.88;;;1.77;;
15665;SDS011;20725;51.196;3.510;2022-07-17T13:59:19;2.85;;;2.13;;
15665;SDS011;20725;51.196;3.510;2022-07-17T14:01:58;3.50;;;2.28;;
15665;SDS011;20725;51.196;3.510;2022-07-17T14:04:50;3.15;;;2.30;;
15665;SDS011;20725;51.196;3.510;2022-07-17T14:07:32;4.13;;;1.98;;
15665;SDS011;20725;51.196;3.510;2022-07-17T14:10:18;2.72;;;2.17;;
15665;SDS011;20725;51.196;3.510;2022-07-17T14:12:47;4.82;;;2.63;;
15665;SDS011;20725;51.196;3.510;2022-07-17T14:15:21;2.33;;;2.05;;
15665;SDS011;20725;51.196;3.510;2022-07-17T14:17:54;2.17;;;2.08;;
15665;SDS011;20725;51.196;3.510;2022-07-17T14:20:33;3.90;;;2.20;;
15665;SDS011;20725;51.196;3.510;2022-07-17T14:23:02;3.17;;;2.38;;
15665;SDS011;20725;51.196;3.510;2022-07-17T14:25:35;3.92;;;2.47;;
15665;SDS011;20725;51.196;3.510;2022-07-17T14:28:02;4.35;;;2.13;;
15665;SDS011;20725;51.196;3.510;2022-07-17T14:30:32;3.08;;;2.65;;
15665;SDS011;20725;51.196;3.510;2022-07-17T14:33:01;3.25;;;2.95;;
15665;SDS011;20725;51.196;3.510;2022-07-17T14:35:41;3.38;;;3.00;;
15665;SDS011;20725;51.196;3.510;2022-07-17T14:38:12;3.58;;;2.75;;
15665;SDS011;20725;51.196;3.510;2022-07-17T14:40:58;3.72;;;2.78;;
15665;SDS011;20725;51.196;3.510;2022-07-17T14:43:42;3.15;;;2.25;;
15665;SDS011;20725;51.196;3.510;2022-07-17T14:46:18;2.72;;;2.53;;
15665;SDS011;20725;51.196;3.510;2022-07-17T14:48:53;3.88;;;2.92;;
15665;SDS011;20725;51.196;3.510;2022-07-17T14:51:30;4.65;;;2.90;;
15665;SDS011;20725;51.196;3.510;2022-07-17T14:54:09;3.17;;;2.80;;
15665;SDS011;20725;51.196;3.510;2022-07-17T14:56:42;2.92;;;2.72;;
15665;SDS011;20725;51.196;3.510;2022-07-17T14:59:36;3.33;;;3.03;;
15665;SDS011;20725;51.196;3.510;2022-07-17T15:02:33;4.95;;;3.33;;
15665;SDS011;20725;51.196;3.510;2022-07-17T15:05:14;3.88;;;3.50;;
15665;SDS011;20725;51.196;3.510;2022-07-17T15:07:45;5.53;;;3.55;;
15665;SDS011;20725;51.196;3.510;2022-07-17T15:10:25;4.00;;;3.25;;
15665;SDS011;20725;51.196;3.510;2022-07-17T15:12:58;2.97;;;2.75;;
15665;SDS011;20725;51.196;3.510;2022-07-17T15:15:41;4.35;;;3.53;;
15665;SDS011;20725;51.196;3.510;2022-07-17T15:18:14;3.97;;;3.65;;
15665;SDS011;20725;51.196;3.510;2022-07-17T15:20:47;4.45;;;4.05;;
15665;SDS011;20725;51.196;3.510;2022-07-17T15:23:19;4.32;;;3.17;;
15665;SDS011;20725;51.196;3.510;2022-07-17T15:25:56;7.53;;;3.40;;
15665;SDS011;20725;51.196;3.510;2022-07-17T15:28:26;4.07;;;3.67;;
15665;SDS011;20725;51.196;3.510;2022-07-17T15:30:56;4.00;;;3.28;;
15665;SDS011;20725;51.196;3.510;2022-07-17T15:33:29;3.88;;;3.20;;
15665;SDS011;20725;51.196;3.510;2022-07-17T15:36:10;5.32;;;3.70;;
15665;SDS011;20725;51.196;3.510;2022-07-17T15:38:37;4.15;;;3.53;;
15665;SDS011;20725;51.196;3.510;2022-07-17T15:41:08;4.60;;;3.92;;
15665;SDS011;20725;51.196;3.510;2022-07-17T15:43:35;3.28;;;3.08;;
15665;SDS011;20725;51.196;3.510;2022-07-17T15:46:04;3.95;;;3.55;;
15665;SDS011;20725;51.196;3.510;2022-07-17T15:49:03;3.67;;;3.38;;
15665;SDS011;20725;51.196;3.510;2022-07-17T15:51:26;3.58;;;3.25;;
15665;SDS011;20725;51.196;3.510;2022-07-17T15:53:54;4.30;;;3.30;;
15665;SDS011;20725;51.196;3.510;2022-07-17T15:56:32;4.18;;;3.35;;
15665;SDS011;20725;51.196;3.510;2022-07-17T15:59:12;3.60;;;3.17;;
15665;SDS011;20725;51.196;3.510;2022-07-17T16:01:45;3.22;;;2.90;;
15665;SDS011;20725;51.196;3.510;2022-07-17T16:04:21;3.75;;;3.10;;
15665;SDS011;20725;51.196;3.510;2022-07-17T16:07:01;4.25;;;3.15;;
15665;SDS011;20725;51.196;3.510;2022-07-17T16:09:39;4.90;;;3.50;;
15665;SDS011;20725;51.196;3.510;2022-07-17T16:12:12;4.57;;;3.60;;
15665;SDS011;20725;51.196;3.510;2022-07-17T16:14:43;4.03;;;3.20;;
15665;SDS011;20725;51.196;3.510;2022-07-17T16:17:14;4.57;;;3.50;;
15665;SDS011;20725;51.196;3.510;2022-07-17T16:19:56;4.07;;;3.50;;
15665;SDS011;20725;51.196;3.510;2022-07-17T16:22:42;7.55;;;3.30;;
15665;SDS011;20725;51.196;3.510;2022-07-17T16:25:19;4.40;;;3.50;;
15665;SDS011;20725;51.196;3.510;2022-07-17T16:27:48;6.18;;;3.95;;
15665;SDS011;20725;51.196;3.510;2022-07-17T16:30:40;4.50;;;3.67;;
15665;SDS011;20725;51.196;3.510;2022-07-17T16:33:23;8.50;;;4.00;;
15665;SDS011;20725;51.196;3.510;2022-07-17T16:35:55;5.95;;;3.60;;